Flight Track Log - Related Links

Times and Time Zones

All times are in EDT time to prevent confusion due to time zone crossing. See the AAY624 flight status page for this flight to view local times or setup timezone preferences in your user account.


Time Position Orientation Groundspeed Altitude Reporting Facility
EDT Latitude Longitude Course Direction KTS MPH feet Rate Location/Type
Mon 09:28:56 AM 28.7833 -81.2500 270° West 165 190 1,000  Level Orlando TRACON
Mon 09:30:03 AM 28.7833 -81.3333 270° West 208 239 3,500 2,080 Climbing Orlando TRACON
Mon 09:31:52 AM 28.8756 -81.3703 341° North 295 339 7,100 2,321 Climbing Jacksonville Center
Mon 09:32:51 AM 28.9508 -81.3764 356° North 292 336 10,000 1,966 Climbing Jacksonville Center
Mon 09:33:51 AM 29.0364 -81.3869 354° North 292 336 11,000 750 Climbing Jacksonville Center
Mon 09:34:51 AM 29.1408 -81.3947 356° North 333 383 11,500 1,600 Climbing Jacksonville Center
Mon 09:35:51 AM 29.2494 -81.4075 354° North 369 425 14,200 2,550 Climbing Jacksonville Center
Mon 09:36:51 AM 29.3622 -81.4106 359° North 393 452 16,600 2,050 Climbing Jacksonville Center
Mon 09:37:51 AM 29.4753 -81.4278 352° North 399 459 18,300 1,850 Climbing Jacksonville Center
Mon 09:38:51 AM 29.5964 -81.4356 357° North 418 481 20,300 1,884 Climbing Jacksonville Center
Mon 09:39:52 AM 29.7197 -81.4458 356° North 430 495 22,100 2,050 Climbing Jacksonville Center
Mon 09:40:51 AM 29.8408 -81.4606 354° North 435 501 24,400 1,950 Climbing Jacksonville Center
Mon 09:41:52 AM 29.9622 -81.4733 355° North 435 501 26,000 1,450 Climbing Jacksonville Center
Mon 09:42:51 AM 30.0856 -81.4858 355° North 440 506 27,300 1,462 Climbing Jacksonville Center
Mon 09:43:51 AM 30.2067 -81.4986 355° North 440 506 28,900 1,388 Climbing Jacksonville Center
Mon 09:44:52 AM 30.3300 -81.5111 355° North 440 506 30,100 1,200 Climbing Jacksonville Center
Mon 09:45:51 AM 30.4719 -81.4994 North 445 512 31,300 1,059 Climbing Jacksonville Center
Mon 09:46:51 AM 30.5992 -81.4903 North 455 524 32,200 800 Climbing Jacksonville Center
Mon 09:47:51 AM 30.7242 -81.4814 North 455 524 32,900 397 Climbing Jacksonville Center
Mon 09:48:52 AM 30.8517 -81.4697 North 461 531 33,000  Climbing Jacksonville Center
Mon 09:49:52 AM 30.9789 -81.4606 North 461 531 32,900 -50 Descending Jacksonville Center
Mon 09:50:52 AM 31.1061 -81.4514 North 461 531 32,900 50 Level Jacksonville Center
Mon 09:51:51 AM 31.2333 -81.4372 North 455 524 33,000 50 Climbing Jacksonville Center
Mon 09:52:51 AM 31.3583 -81.4158 North 460 529 33,000  Level Jacksonville Center
Mon 09:53:51 AM 31.4708 -81.4019 North 460 529 33,000  Level Jacksonville Center
Mon 09:54:51 AM 31.6125 -81.3825 North 460 529 33,000  Level Jacksonville Center
Mon 09:55:51 AM 31.7419 -81.3633 North 460 529 33,000  Level Jacksonville Center
Mon 09:56:51 AM 31.8586 -81.3467 North 465 535 33,000 -50 Level Jacksonville Center
Mon 09:57:51 AM 31.9858 -81.3297 North 465 535 32,900 -50 Descending Jacksonville Center
Mon 09:58:51 AM 32.1128 -81.3106 North 460 529 32,900  Level Jacksonville Center
Mon 09:59:51 AM 32.2358 -81.2936 North 455 524 32,900 50 Level Jacksonville Center
Mon 10:00:51 AM 32.3650 -81.2742 North 455 524 33,000 50 Climbing Jacksonville Center
Mon 10:01:52 AM 32.5025 -81.2569 North 455 524 33,000  Level Jacksonville Center
Mon 10:02:51 AM 32.6172 -81.2400 North 460 529 33,000 -50 Level Jacksonville Center
Mon 10:03:51 AM 32.7442 -81.2206 North 466 536 32,900 -50 Descending Jacksonville Center
Mon 10:04:52 AM 32.8756 -81.1983 North 466 536 32,900  Level Jacksonville Center
Mon 10:05:51 AM 33.0042 -81.1511 17° North 467 537 32,900  Level Jacksonville Center
Mon 10:06:51 AM 33.1369 -81.0992 18° North 477 549 32,900 50 Level Jacksonville Center
Mon 10:07:51 AM 33.2678 -81.0492 18° North 487 560 33,000  Climbing Jacksonville Center
Mon 10:08:51 AM 33.4028 -81.0017 16° North 493 567 32,900 -50 Descending Jacksonville Center
Mon 10:09:51 AM 33.5356 -80.9489 18° North 493 567 32,900 50 Level Jacksonville Center
Mon 10:10:52 AM 33.6642 -80.9011 17° North 493 567 33,000  Climbing Jacksonville Center
Mon 10:11:52 AM 33.7950 -80.8533 17° North 493 567 32,900 -50 Descending Jacksonville Center
Mon 10:12:51 AM 33.9275 -80.8028 18° North 493 567 32,900  Level Jacksonville Center
Mon 10:13:52 AM 34.0583 -80.7544 17° North 493 567 32,900 50 Level Jacksonville Center
Mon 10:14:52 AM 34.1889 -80.7036 18° North 493 567 33,000 33 Climbing Jacksonville Center
Mon 10:16:56 AM 34.4683 -80.5997 17° North 505 581 33,000  Level Atlanta Center
Mon 10:17:56 AM 34.5961 -80.5489 18° North 493 567 33,000  Level Atlanta Center
Mon 10:18:56 AM 34.7283 -80.4981 18° North 493 567 33,000  Level Atlanta Center
Mon 10:19:56 AM 34.8583 -80.4469 18° North 488 562 33,000  Level Atlanta Center
Mon 10:20:56 AM 34.9903 -80.3931 18° North 488 562 33,000  Level Atlanta Center
Mon 10:21:56 AM 35.1181 -80.3442 17° North 488 562 33,000  Level Atlanta Center
Mon 10:22:56 AM 35.2500 -80.2925 18° North 488 562 33,000  Level Atlanta Center
Mon 10:23:56 AM 35.3800 -80.2408 18° North 489 563 33,000  Level Atlanta Center
Mon 10:24:56 AM 35.5097 -80.1914 17° North 489 563 33,000  Level Atlanta Center
Mon 10:25:56 AM 35.6397 -80.1394 18° North 489 563 33,000  Level Atlanta Center
Mon 10:27:36 AM 35.8408 -80.0633 17° North 505 581 33,000  Level Washington Center
Mon 10:28:37 AM 35.9722 -80.0142 17° North 494 568 33,000  Level Washington Center
Mon 10:29:38 AM 36.0975 -79.9544 21° North 488 562 33,000  Level Washington Center
Mon 10:30:38 AM 36.2211 -79.8764 27° Northeast 482 555 33,000  Level Washington Center
Mon 10:31:37 AM 36.3450 -79.8006 26° Northeast 487 560 33,000  Level Washington Center
Mon 10:32:38 AM 36.4667 -79.7244 27° Northeast 487 560 33,000  Level Washington Center
Mon 10:33:39 AM 36.5881 -79.6481 27° Northeast 487 560 33,000  Level Washington Center
Mon 10:34:36 AM 36.7139 -79.5717 26° Northeast 487 560 33,000 -356 Level Washington Center
Mon 10:35:37 AM 36.8522 -79.4881 26° Northeast 492 566 32,300 -836 Descending Washington Center
Mon 10:36:38 AM 36.9736 -79.4108 27° Northeast 492 566 31,300 -942 Descending Washington Center
Mon 10:37:38 AM 37.0992 -79.3314 27° Northeast 492 566 30,400 -974 Descending Washington Center
Mon 10:38:35 AM 37.2139 -79.2611 26° Northeast 497 572 29,400 -712 Descending Washington Center
Mon 10:39:36 AM 37.3375 -79.1808 27° Northeast 497 572 29,000 -197 Descending Washington Center
Mon 10:40:37 AM 37.4628 -79.1031 26° Northeast 497 572 29,000  Level Washington Center
Mon 10:41:37 AM 37.6008 -79.0178 26° Northeast 497 572 29,000 -298 Level Washington Center
Mon 10:42:38 AM 37.7261 -78.9369 27° Northeast 497 572 28,400 -655 Descending Washington Center
Mon 10:43:36 AM 37.8514 -78.8608 26° Northeast 497 572 27,700 -712 Descending Washington Center
Mon 10:44:36 AM 37.9575 -78.7944 26° Northeast 492 566 27,000 -347 Descending Washington Center
Mon 10:45:37 AM 38.0783 -78.7150 27° Northeast 487 560 27,000  Level Washington Center
Mon 10:46:37 AM 38.1972 -78.6408 26° Northeast 482 555 27,000  Level Washington Center
Mon 10:47:37 AM 38.3286 -78.5533 28° Northeast 482 555 27,000  Level Washington Center
Mon 10:48:38 AM 38.4494 -78.4733 27° Northeast 482 555 27,000 -496 Level Washington Center
Mon 10:49:38 AM 38.5700 -78.3958 27° Northeast 482 555 26,000 -1,424 Descending Washington Center
Mon 10:50:36 AM 38.6867 -78.3178 28° Northeast 477 549 24,200 -1,983 Descending Washington Center
Mon 10:51:36 AM 38.8072 -78.2369 28° Northeast 477 549 22,100 -1,934 Descending Washington Center
Mon 10:52:37 AM 38.9128 -78.1689 27° Northeast 477 549 20,300 -1,426 Descending Washington Center
Mon 10:53:38 AM 39.0269 -78.1006 25° Northeast 472 543 19,200 -655 Descending Washington Center
Mon 10:54:36 AM 39.1303 -78.0372 25° Northeast 434 499 19,000 -101 Descending Washington Center
Mon 10:55:37 AM 39.2197 -77.9439 39° Northeast 416 479 19,000  Level Washington Center
Mon 10:56:38 AM 39.3092 -77.8447 41° Northeast 416 479 19,000  Level Washington Center
Mon 10:58:30 AM 39.5200 -77.7367 22° Northeast 405 466 19,000  Level New York Center
Mon 10:59:31 AM 39.6272 -77.6853 20° North 405 466 19,000  Level New York Center
Mon 11:00:31 AM 39.7306 -77.6278 23° Northeast 400 460 19,000  Level New York Center
Mon 11:01:31 AM 39.7894 -77.5147 56° Northeast 395 455 19,000  Level New York Center
Mon 11:02:30 AM 39.8539 -77.3694 60° Northeast 406 467 19,000  Level New York Center
Mon 11:03:30 AM 39.9086 -77.2472 60° Northeast 427 491 19,000  Level New York Center
Mon 11:04:31 AM 39.9731 -77.0961 61° Northeast 427 491 19,000  Level New York Center
Mon 11:05:29 AM 40.0256 -76.9708 61° Northeast 427 491 19,000  Level New York Center
Mon 11:06:29 AM 40.0875 -76.8242 61° Northeast 421 484 19,000 -300 Level New York Center
Mon 11:07:29 AM 40.1394 -76.7011 61° Northeast 421 484 18,400 -595 Descending New York Center
Mon 11:08:30 AM 40.2008 -76.5569 61° Northeast 421 484 17,800 -590 Descending New York Center
Mon 11:09:31 AM 40.2486 -76.4358 63° Northeast 415 478 17,200 -645 Descending New York Center
Mon 11:10:31 AM 40.3094 -76.2911 61° Northeast 415 478 16,500 -814 Descending New York Center
Mon 11:11:29 AM 40.3633 -76.1617 61° Northeast 403 464 15,600 -915 Descending New York Center
Mon 11:12:29 AM 40.4131 -76.0347 63° Northeast 403 464 14,700 -1,140 Descending New York Center
Mon 11:13:30 AM 40.4597 -75.9211 62° Northeast 403 464 13,300 -1,525 Descending New York Center
Mon 11:14:31 AM 40.5053 -75.7797 67° East 390 449 11,600 -1,462 Descending New York Center
Mon 11:15:29 AM 40.5250 -75.6556 78° East 367 422 10,400 -1,160 Descending New York Center
Mon 11:16:30 AM 40.5422 -75.5419 79° East 336 387 9,300 -1,438 Descending New York Center
Mon 11:17:30 AM 40.5572 -75.4311 80° East 309 356 7,500 -1,686 Descending New York Center
Mon 11:18:31 AM 40.5817 -75.3344 72° East 296 341 5,900 -1,736 Descending New York Center
Mon 11:19:31 AM 40.6400 -75.2836 33° Northeast 246 283 4,000 -1,576 Descending New York Center
Mon 11:20:29 AM 40.6956 -75.2981 349° North 199 229 2,800 -908 Descending New York Center
Mon 11:21:30 AM 40.7169 -75.3381 305° West 151 174 2,200 -645 Descending New York Center
Mon 11:22:30 AM 40.6928 -75.3747 229° Southwest 111 128 1,500 -350 Descending New York Center
Mon 11:23:30 AM 40.6933 -75.4131 271° West 111 128 1,500 3,719 Level New York Center
Mon 11:24:31 AM 40.6875 -75.4536 259° West 111 128 9,000 3,782 Climbing New York Center
Mon 11:25:29 AM 40.6797 -75.4942 256° West 111 128 9,000  Level New York Center

Login

Don't have an account? Register now (free) for customized features, flight alerts, and more!